createdAt,value
2022-11-25T00:01:27.401Z,3.60
2022-11-25T00:03:57.114Z,3.00
2022-11-25T00:06:26.722Z,3.30
2022-11-25T00:08:59.014Z,3.23
2022-11-25T00:11:28.391Z,3.10
2022-11-25T00:13:58.730Z,3.03
2022-11-25T00:16:28.272Z,3.10
2022-11-25T00:18:59.553Z,3.30
2022-11-25T00:21:30.180Z,3.50
2022-11-25T00:24:00.279Z,2.80
2022-11-25T00:26:32.726Z,2.80
2022-11-25T00:29:05.434Z,2.67
2022-11-25T00:31:35.391Z,2.80
2022-11-25T00:34:05.012Z,2.93
2022-11-25T00:36:34.343Z,2.97
2022-11-25T00:39:04.717Z,2.73
2022-11-25T00:41:49.843Z,2.80
2022-11-25T00:44:40.705Z,2.80
2022-11-25T00:47:11.156Z,2.80
2022-11-25T00:49:40.659Z,2.97
2022-11-25T00:52:09.325Z,2.53
2022-11-25T00:54:37.466Z,2.63
2022-11-25T00:57:05.909Z,2.90
2022-11-25T00:59:35.776Z,2.67
2022-11-25T01:02:03.789Z,2.67
2022-11-25T01:04:31.808Z,2.90
2022-11-25T01:07:00.668Z,2.30
2022-11-25T01:09:28.970Z,3.03
2022-11-25T01:11:56.747Z,2.33
2022-11-25T01:14:25.645Z,2.40
2022-11-25T01:16:55.073Z,2.10
2022-11-25T01:19:24.371Z,2.43
2022-11-25T01:21:52.186Z,2.63
2022-11-25T01:24:20.658Z,2.50
2022-11-25T01:26:49.701Z,2.27
2022-11-25T01:29:19.263Z,2.17
2022-11-25T01:31:48.463Z,3.10
2022-11-25T01:34:23.406Z,2.40
2022-11-25T01:36:51.836Z,2.87
2022-11-25T01:39:24.456Z,2.20
2022-11-25T01:41:56.360Z,2.20
2022-11-25T01:44:25.830Z,2.30
2022-11-25T01:47:03.697Z,2.60
2022-11-25T01:49:40.494Z,2.30
2022-11-25T01:52:16.644Z,2.30
2022-11-25T01:54:51.272Z,2.50
2022-11-25T01:57:24.447Z,2.03
2022-11-25T01:59:54.840Z,2.03
2022-11-25T02:02:23.482Z,2.57
2022-11-25T02:04:53.877Z,2.30
2022-11-25T02:07:32.897Z,2.60
2022-11-25T02:10:03.844Z,1.90
2022-11-25T02:12:33.267Z,2.40
2022-11-25T02:15:01.640Z,2.00
2022-11-25T02:17:30.362Z,2.23
2022-11-25T02:20:06.118Z,1.97
2022-11-25T02:22:46.528Z,2.30
2022-11-25T02:25:22.099Z,2.10
2022-11-25T02:27:54.276Z,3.03
2022-11-25T02:30:24.218Z,2.70
2022-11-25T02:32:53.519Z,2.73
2022-11-25T02:35:26.400Z,2.40
2022-11-25T02:37:59.387Z,2.53
2022-11-25T02:40:29.755Z,2.03
2022-11-25T02:43:00.407Z,2.00
2022-11-25T02:45:41.099Z,1.77
2022-11-25T02:48:09.463Z,2.00
2022-11-25T02:50:37.580Z,2.33
2022-11-25T02:53:05.856Z,2.03
2022-11-25T02:55:36.764Z,1.63
2022-11-25T02:58:05.342Z,2.20
2022-11-25T03:00:33.588Z,2.23
2022-11-25T03:03:01.544Z,2.07
2022-11-25T03:05:29.973Z,1.67
2022-11-25T03:07:57.913Z,2.03
2022-11-25T03:10:26.191Z,2.10
2022-11-25T03:12:55.455Z,2.03
2022-11-25T03:15:23.941Z,2.00
2022-11-25T03:17:52.101Z,2.23
2022-11-25T03:20:20.895Z,1.60
2022-11-25T03:22:48.867Z,2.23
2022-11-25T03:25:17.085Z,1.80
2022-11-25T03:27:45.828Z,2.30
2022-11-25T03:30:17.623Z,2.33
2022-11-25T03:32:46.256Z,2.27
2022-11-25T03:35:15.730Z,1.90
2022-11-25T03:37:44.440Z,2.20
2022-11-25T03:40:15.295Z,2.33
2022-11-25T03:42:43.445Z,2.50
2022-11-25T03:45:14.159Z,2.33
2022-11-25T03:47:44.530Z,2.30
2022-11-25T03:50:15.502Z,2.03
2022-11-25T03:52:43.661Z,2.33
2022-11-25T03:55:13.135Z,1.97
2022-11-25T03:57:42.310Z,1.60
2022-11-25T04:00:11.875Z,2.00
2022-11-25T04:02:39.796Z,2.07
2022-11-25T04:05:10.269Z,1.97
2022-11-25T04:07:38.475Z,2.20
2022-11-25T04:10:07.639Z,2.20
2022-11-25T04:12:50.448Z,2.43
2022-11-25T04:15:19.319Z,2.00
2022-11-25T04:17:47.355Z,2.40
2022-11-25T04:20:18.310Z,2.10
2022-11-25T04:22:46.648Z,1.90
2022-11-25T04:25:14.638Z,2.23
2022-11-25T04:27:42.384Z,2.30
2022-11-25T04:30:11.352Z,2.40
2022-11-25T04:32:40.028Z,2.23
2022-11-25T04:35:08.425Z,2.00
2022-11-25T04:37:38.055Z,2.53
2022-11-25T04:40:07.687Z,3.23
2022-11-25T04:42:39.752Z,1.97
2022-11-25T04:45:25.196Z,2.47
2022-11-25T04:47:53.370Z,2.60
2022-11-25T04:50:23.986Z,2.10
2022-11-25T04:52:53.928Z,2.00
2022-11-25T04:55:21.948Z,1.97
2022-11-25T04:57:51.353Z,2.40
2022-11-25T05:00:19.566Z,2.20
2022-11-25T05:02:48.935Z,2.27
2022-11-25T05:05:17.069Z,1.90
2022-11-25T05:07:45.830Z,1.90
2022-11-25T05:10:15.683Z,1.90
2022-11-25T05:12:43.665Z,2.20
2022-11-25T05:15:14.346Z,2.50
2022-11-25T05:17:42.593Z,2.33
2022-11-25T05:20:12.108Z,2.57
2022-11-25T05:22:40.328Z,2.10
2022-11-25T05:25:09.988Z,2.00
2022-11-25T05:27:39.350Z,2.23
2022-11-25T05:30:09.896Z,2.10
2022-11-25T05:32:37.618Z,2.50
2022-11-25T05:35:05.990Z,2.97
2022-11-25T05:37:33.901Z,2.33
2022-11-25T05:40:02.535Z,2.70
2022-11-25T05:42:30.679Z,2.33
2022-11-25T05:45:02.590Z,2.30
2022-11-25T05:47:30.799Z,2.40
2022-11-25T05:49:59.070Z,2.40
2022-11-25T05:52:26.947Z,1.73
2022-11-25T05:54:57.491Z,2.50
2022-11-25T05:57:25.633Z,2.40
2022-11-25T05:59:53.882Z,2.53
2022-11-25T06:02:23.791Z,2.60
2022-11-25T06:04:51.985Z,1.87
2022-11-25T06:07:19.833Z,2.30
2022-11-25T06:09:47.619Z,2.47
2022-11-25T06:12:18.080Z,2.17
2022-11-25T06:14:47.263Z,2.23
2022-11-25T06:17:15.074Z,2.20
2022-11-25T06:19:45.201Z,2.30
2022-11-25T06:22:13.002Z,2.20
2022-11-25T06:24:41.049Z,2.20
2022-11-25T06:27:08.839Z,2.47
2022-11-25T06:29:36.822Z,2.57
2022-11-25T06:32:05.207Z,2.13
2022-11-25T06:34:33.371Z,2.70
2022-11-25T06:37:04.175Z,2.83
2022-11-25T06:39:31.963Z,2.67
2022-11-25T06:41:59.901Z,3.20
2022-11-25T06:44:28.128Z,3.00
2022-11-25T06:46:56.828Z,2.90
2022-11-25T06:49:24.834Z,3.13
2022-11-25T06:51:52.932Z,3.00
2022-11-25T06:54:22.795Z,2.67
2022-11-25T06:56:53.803Z,2.50
2022-11-25T06:59:21.968Z,2.70
2022-11-25T07:01:49.914Z,2.33
2022-11-25T07:04:17.915Z,2.63
2022-11-25T07:06:46.119Z,2.50
2022-11-25T07:09:14.682Z,2.97
2022-11-25T07:11:43.992Z,2.30
2022-11-25T07:14:14.220Z,2.80
2022-11-25T07:16:44.153Z,3.17
2022-11-25T07:19:14.612Z,2.30
2022-11-25T07:21:45.677Z,2.90
2022-11-25T07:24:15.355Z,2.80
2022-11-25T07:26:46.360Z,2.63
2022-11-25T07:29:50.036Z,2.93
2022-11-25T07:32:09.953Z,3.17
2022-11-25T07:34:38.906Z,2.67
2022-11-25T07:37:08.402Z,2.77
2022-11-25T07:39:37.111Z,2.40
2022-11-25T07:42:07.638Z,2.70
2022-11-25T07:44:35.550Z,2.83
2022-11-25T07:47:03.322Z,2.80
2022-11-25T07:49:31.083Z,2.53
2022-11-25T07:52:02.301Z,2.87
2022-11-25T07:54:31.185Z,2.80
2022-11-25T07:56:58.932Z,2.77
2022-11-25T07:59:29.352Z,3.10
2022-11-25T08:01:57.229Z,3.13
2022-11-25T08:04:26.468Z,4.20
2022-11-25T08:06:54.873Z,4.90
2022-11-25T08:09:24.533Z,3.60
2022-11-25T08:11:53.134Z,3.37
2022-11-25T08:14:21.837Z,3.23
2022-11-25T08:16:53.481Z,2.87
2022-11-25T08:19:23.144Z,2.97
2022-11-25T08:21:54.820Z,2.73
2022-11-25T08:24:22.617Z,2.73
2022-11-25T08:26:51.390Z,2.70
2022-11-25T08:29:20.747Z,1.93
2022-11-25T08:31:48.692Z,2.90
2022-11-25T08:34:20.697Z,2.33
2022-11-25T08:36:49.203Z,2.53
2022-11-25T08:42:07.663Z,2.60
2022-11-25T08:44:36.008Z,2.80
2022-11-25T08:47:03.915Z,3.63
2022-11-25T08:49:39.164Z,2.83
2022-11-25T08:52:10.379Z,2.40
2022-11-25T08:54:38.696Z,2.73
2022-11-25T08:57:06.510Z,2.20
2022-11-25T08:59:35.323Z,2.57
2022-11-25T09:02:04.279Z,2.80
2022-11-25T09:04:33.956Z,3.47
2022-11-25T09:07:02.275Z,2.30
2022-11-25T09:09:30.194Z,2.40
2022-11-25T09:11:59.155Z,2.50
2022-11-25T09:14:27.555Z,2.50
2022-11-25T09:16:57.261Z,2.07
2022-11-25T09:19:25.582Z,2.60
2022-11-25T09:21:54.742Z,2.20
2022-11-25T09:24:22.629Z,2.30
2022-11-25T09:26:52.147Z,2.10
2022-11-25T09:29:20.021Z,2.23
2022-11-25T09:31:53.016Z,2.27
2022-11-25T09:34:24.007Z,3.03
2022-11-25T09:36:52.363Z,2.50
2022-11-25T09:39:21.687Z,3.63
2022-11-25T09:42:18.564Z,2.00
2022-11-25T09:45:21.542Z,2.57
2022-11-25T09:48:02.446Z,2.20
2022-11-25T09:50:42.341Z,2.10
2022-11-25T09:53:27.091Z,2.37
2022-11-25T09:56:02.288Z,1.90
2022-11-25T09:58:35.544Z,2.93
2022-11-25T10:01:08.447Z,3.13
2022-11-25T10:03:41.966Z,2.27
2022-11-25T10:06:17.636Z,2.20
2022-11-25T10:08:49.151Z,2.53
2022-11-25T10:11:32.829Z,2.30
2022-11-25T10:14:06.980Z,2.10
2022-11-25T10:16:49.994Z,2.30
2022-11-25T10:19:29.044Z,2.27
2022-11-25T10:21:57.003Z,2.00
2022-11-25T10:24:26.384Z,2.47
2022-11-25T10:27:02.420Z,2.30
2022-11-25T10:29:31.848Z,2.60
2022-11-25T10:32:12.863Z,2.53
2022-11-25T10:34:46.412Z,2.60
2022-11-25T10:37:19.938Z,2.50
2022-11-25T10:39:47.776Z,2.40
2022-11-25T10:42:22.776Z,2.50
2022-11-25T10:44:51.107Z,2.77
2022-11-25T10:47:36.260Z,2.40
2022-11-25T10:50:17.401Z,2.00
2022-11-25T10:52:51.378Z,1.80
2022-11-25T10:55:23.579Z,2.77
2022-11-25T10:57:53.825Z,2.30
2022-11-25T11:00:31.789Z,2.10
2022-11-25T11:03:02.217Z,2.60
2022-11-25T11:05:32.561Z,2.30
2022-11-25T11:08:19.623Z,2.03
2022-11-25T11:11:09.595Z,2.30
2022-11-25T11:13:39.479Z,2.20
2022-11-25T11:16:24.860Z,2.40
2022-11-25T11:18:53.516Z,2.20
2022-11-25T11:21:30.830Z,2.90
2022-11-25T11:23:59.848Z,2.50
2022-11-25T11:26:30.030Z,2.27
2022-11-25T11:29:07.299Z,2.80
2022-11-25T11:31:41.028Z,2.47
2022-11-25T11:34:32.004Z,2.67
2022-11-25T11:37:23.885Z,2.70
2022-11-25T11:40:00.845Z,2.53
2022-11-25T11:42:42.542Z,2.20
2022-11-25T11:45:34.087Z,2.40
2022-11-25T11:48:12.733Z,2.20
2022-11-25T11:50:43.868Z,2.27
2022-11-25T11:53:19.046Z,2.90
2022-11-25T11:56:18.815Z,2.60
2022-11-25T11:58:55.220Z,2.50
2022-11-25T12:01:38.703Z,2.30
2022-11-25T12:04:19.279Z,2.33
2022-11-25T12:06:54.664Z,2.50
2022-11-25T12:09:24.703Z,2.40
2022-11-25T12:11:57.388Z,2.50
2022-11-25T12:14:36.013Z,2.50
2022-11-25T12:17:10.335Z,2.50
2022-11-25T12:19:43.769Z,2.63
2022-11-25T12:22:19.897Z,2.40
2022-11-25T12:24:53.095Z,2.60
2022-11-25T12:27:24.900Z,2.97
2022-11-25T12:29:58.545Z,2.63
2022-11-25T12:32:48.967Z,2.57
2022-11-25T12:35:24.972Z,2.47
2022-11-25T12:38:00.011Z,2.60
2022-11-25T12:40:33.323Z,2.47
2022-11-25T12:43:14.333Z,2.70
2022-11-25T12:45:45.505Z,3.10
2022-11-25T12:48:19.998Z,2.50
2022-11-25T12:50:58.242Z,2.60
2022-11-25T12:53:34.955Z,2.50
2022-11-25T12:56:05.599Z,2.70
2022-11-25T12:58:48.519Z,2.10
2022-11-25T13:01:56.891Z,2.50
2022-11-25T13:04:44.445Z,2.40
2022-11-25T13:07:32.053Z,2.60
2022-11-25T13:10:34.380Z,3.17
2022-11-25T13:13:18.166Z,2.20
2022-11-25T13:15:48.720Z,2.50
2022-11-25T13:18:19.831Z,2.43
2022-11-25T13:20:52.081Z,2.20
2022-11-25T13:23:31.055Z,2.17
2022-11-25T13:26:38.002Z,2.33
2022-11-25T13:29:44.688Z,3.73
2022-11-25T13:32:30.221Z,3.07
2022-11-25T13:35:37.316Z,3.03
2022-11-25T13:38:37.917Z,2.93
2022-11-25T13:41:24.107Z,2.93
2022-11-25T13:44:02.196Z,2.63
2022-11-25T13:46:40.789Z,2.70
2022-11-25T13:49:33.313Z,2.17
2022-11-25T13:52:06.310Z,2.37
2022-11-25T13:54:40.146Z,2.30
2022-11-25T13:57:26.719Z,2.03
2022-11-25T13:59:58.113Z,2.50
2022-11-25T14:02:49.951Z,2.50
2022-11-25T14:05:48.660Z,3.10
2022-11-25T14:08:26.525Z,2.37
2022-11-25T14:11:04.383Z,3.20
2022-11-25T14:14:09.652Z,3.03
2022-11-25T14:16:51.187Z,2.60
2022-11-25T14:19:54.005Z,2.80
2022-11-25T14:22:41.825Z,2.50
2022-11-25T14:25:22.636Z,2.90
2022-11-25T14:28:02.398Z,3.40
2022-11-25T14:30:32.686Z,2.93
2022-11-25T14:33:03.776Z,3.00
2022-11-25T14:35:43.476Z,3.27
2022-11-25T14:38:16.618Z,3.13
2022-11-25T14:40:54.193Z,3.03
2022-11-25T14:43:26.444Z,3.37
2022-11-25T14:46:15.440Z,3.40
2022-11-25T14:48:44.713Z,3.27
2022-11-25T14:51:15.543Z,2.80
2022-11-25T14:53:48.244Z,2.97
2022-11-25T14:56:22.633Z,2.83
2022-11-25T14:58:53.617Z,3.20
2022-11-25T15:01:23.807Z,2.97
2022-11-25T15:03:55.136Z,3.30
2022-11-25T15:06:23.120Z,2.77
2022-11-25T15:08:57.016Z,2.70
2022-11-25T15:11:28.347Z,4.00
2022-11-25T15:14:02.257Z,2.70
2022-11-25T15:16:35.709Z,2.97
2022-11-25T15:19:05.842Z,3.03
2022-11-25T15:21:48.424Z,3.33
2022-11-25T15:24:27.376Z,3.67
2022-11-25T15:26:56.800Z,3.87
2022-11-25T15:29:27.025Z,3.10
2022-11-25T15:31:56.307Z,3.17
2022-11-25T15:34:26.221Z,3.60
2022-11-25T15:36:54.755Z,2.87
2022-11-25T15:39:30.691Z,3.37
2022-11-25T15:42:06.952Z,3.33
2022-11-25T15:44:40.714Z,3.53
2022-11-25T15:47:20.304Z,3.87
2022-11-25T15:49:52.136Z,4.60
2022-11-25T15:52:22.205Z,4.17
2022-11-25T15:54:51.575Z,3.83
2022-11-25T15:57:23.494Z,3.60
2022-11-25T16:00:14.349Z,3.67
2022-11-25T16:02:52.109Z,3.30
2022-11-25T16:05:27.782Z,3.47
2022-11-25T16:07:59.404Z,3.50
2022-11-25T16:10:31.838Z,3.77
2022-11-25T16:13:29.190Z,3.40
2022-11-25T16:16:02.303Z,3.57
2022-11-25T16:18:42.327Z,6.40
2022-11-25T16:21:13.594Z,4.60
2022-11-25T16:23:48.415Z,4.10
2022-11-25T16:26:19.777Z,4.23
2022-11-25T16:28:56.091Z,4.17
2022-11-25T16:31:26.869Z,4.30
2022-11-25T16:33:55.779Z,4.43
2022-11-25T16:36:23.794Z,4.10
2022-11-25T16:38:54.510Z,4.23
2022-11-25T16:41:25.465Z,3.50
2022-11-25T16:43:59.344Z,4.00
2022-11-25T16:46:29.905Z,4.40
2022-11-25T16:48:57.918Z,3.80
2022-11-25T16:51:27.570Z,3.97
2022-11-25T16:53:56.687Z,4.43
2022-11-25T16:56:27.918Z,4.30
2022-11-25T16:58:56.439Z,4.27
2022-11-25T17:01:26.923Z,4.50
2022-11-25T17:03:56.758Z,5.70
2022-11-25T17:06:26.354Z,5.80
2022-11-25T17:08:54.405Z,5.00
2022-11-25T17:11:28.216Z,4.70
2022-11-25T17:13:57.758Z,4.20
2022-11-25T17:16:28.571Z,4.80
2022-11-25T17:19:00.254Z,5.43
2022-11-25T17:21:28.905Z,5.30
2022-11-25T17:24:02.825Z,6.23
2022-11-25T17:26:38.567Z,5.67
2022-11-25T17:29:09.356Z,6.10
2022-11-25T17:31:38.846Z,5.10
2022-11-25T17:34:08.286Z,5.20
2022-11-25T17:36:36.100Z,4.73
2022-11-25T17:39:04.030Z,4.47
2022-11-25T17:41:35.470Z,4.17
2022-11-25T17:44:16.748Z,4.30
2022-11-25T17:46:44.945Z,4.60
2022-11-25T17:49:17.074Z,4.50
2022-11-25T17:51:45.111Z,4.20
2022-11-25T17:54:13.234Z,4.37
2022-11-25T17:56:46.559Z,4.43
2022-11-25T17:59:24.518Z,3.97
2022-11-25T18:01:55.931Z,3.57
2022-11-25T18:04:27.431Z,4.43
2022-11-25T18:06:55.739Z,3.50
2022-11-25T18:09:24.105Z,5.67
2022-11-25T18:11:55.741Z,5.70
2022-11-25T18:14:27.804Z,5.17
2022-11-25T18:16:56.713Z,5.27
2022-11-25T18:19:26.320Z,4.83
2022-11-25T18:21:54.490Z,5.93
2022-11-25T18:24:22.413Z,4.83
2022-11-25T18:26:53.784Z,4.50
2022-11-25T18:29:25.753Z,4.50
2022-11-25T18:31:56.872Z,4.73
2022-11-25T18:34:28.039Z,4.87
2022-11-25T18:36:56.166Z,5.50
2022-11-25T18:39:24.484Z,4.70
2022-11-25T18:41:58.220Z,5.53
2022-11-25T18:44:29.066Z,4.77
2022-11-25T18:46:57.110Z,6.27
2022-11-25T18:49:26.947Z,7.07
2022-11-25T18:51:55.127Z,6.53
2022-11-25T18:54:24.236Z,5.53
2022-11-25T18:56:52.894Z,6.63
2022-11-25T18:59:28.204Z,6.10
2022-11-25T19:01:56.474Z,4.97
2022-11-25T19:04:24.981Z,4.67
2022-11-25T19:06:55.062Z,4.43
2022-11-25T19:09:23.096Z,4.20
2022-11-25T19:11:54.894Z,4.63
2022-11-25T19:14:30.438Z,4.80
2022-11-25T19:17:02.616Z,6.10
2022-11-25T19:19:30.850Z,5.07
2022-11-25T19:22:01.643Z,5.37
2022-11-25T19:24:30.163Z,5.87
2022-11-25T19:26:58.727Z,4.47
2022-11-25T19:29:33.873Z,4.77
2022-11-25T19:32:08.490Z,4.20
2022-11-25T19:34:43.741Z,4.87
2022-11-25T19:37:17.315Z,5.50
2022-11-25T19:39:46.144Z,5.43
2022-11-25T19:42:15.124Z,4.43
2022-11-25T19:44:43.393Z,5.47
2022-11-25T19:47:17.195Z,5.10
2022-11-25T19:49:45.969Z,4.23
2022-11-25T19:52:17.231Z,4.67
2022-11-25T19:54:45.882Z,4.70
2022-11-25T19:57:16.962Z,4.57
2022-11-25T19:59:45.270Z,4.80
2022-11-25T20:02:16.609Z,4.20
2022-11-25T20:04:46.475Z,4.10
2022-11-25T20:07:18.473Z,4.50
2022-11-25T20:09:46.571Z,4.50
2022-11-25T20:12:21.038Z,4.13
2022-11-25T20:14:50.151Z,4.10
2022-11-25T20:17:27.848Z,4.53
2022-11-25T20:19:58.882Z,4.80
2022-11-25T20:22:32.471Z,4.93
2022-11-25T20:25:03.440Z,4.93
2022-11-25T20:27:31.427Z,5.27
2022-11-25T20:29:59.328Z,5.53
2022-11-25T20:32:30.066Z,5.50
2022-11-25T20:34:59.895Z,4.87
2022-11-25T20:37:40.551Z,5.30
2022-11-25T20:40:18.711Z,5.10
2022-11-25T20:42:48.010Z,5.53
2022-11-25T20:45:18.189Z,5.03
2022-11-25T20:47:49.411Z,5.60
2022-11-25T20:50:18.293Z,5.40
2022-11-25T20:52:48.346Z,5.00
2022-11-25T20:55:18.515Z,5.37
2022-11-25T20:57:48.480Z,5.70
2022-11-25T21:00:20.761Z,5.17
2022-11-25T21:02:48.956Z,5.30
2022-11-25T21:05:17.162Z,5.23
2022-11-25T21:07:49.509Z,4.97
2022-11-25T21:10:21.688Z,5.63
2022-11-25T21:12:49.981Z,5.53
2022-11-25T21:15:21.089Z,5.67
2022-11-25T21:17:50.148Z,5.70
2022-11-25T21:20:20.275Z,4.97
2022-11-25T21:22:53.179Z,6.37
2022-11-25T21:25:23.785Z,5.80
2022-11-25T21:27:52.472Z,6.07
2022-11-25T21:30:23.438Z,6.10
2022-11-25T21:32:54.522Z,5.37
2022-11-25T21:35:24.408Z,5.53
2022-11-25T21:37:54.167Z,6.27
2022-11-25T21:40:32.446Z,6.50
2022-11-25T21:43:00.756Z,6.13
2022-11-25T21:45:28.785Z,5.87
2022-11-25T21:47:57.035Z,5.90
2022-11-25T21:50:29.294Z,5.93
2022-11-25T21:53:00.976Z,5.80
2022-11-25T21:55:29.293Z,6.33
2022-11-25T21:57:57.296Z,6.53
2022-11-25T22:00:27.015Z,5.50
2022-11-25T22:02:56.078Z,6.37
2022-11-25T22:05:25.623Z,7.43
2022-11-25T22:07:54.973Z,6.23
2022-11-25T22:10:25.279Z,5.90
2022-11-25T22:12:54.625Z,6.50
2022-11-25T22:15:25.500Z,5.87
2022-11-25T22:17:57.119Z,6.00
2022-11-25T22:20:28.721Z,5.67
2022-11-25T22:22:57.003Z,6.83
2022-11-25T22:25:29.969Z,6.40
2022-11-25T22:27:58.001Z,6.17
2022-11-25T22:30:26.333Z,6.30
2022-11-25T22:33:01.604Z,7.33
2022-11-25T22:35:29.966Z,6.47
2022-11-25T22:37:57.992Z,6.87
2022-11-25T22:40:27.543Z,7.07
2022-11-25T22:42:56.703Z,6.73
2022-11-25T22:45:30.831Z,7.17
2022-11-25T22:47:59.571Z,6.97
2022-11-25T22:50:29.817Z,7.93
2022-11-25T22:52:58.440Z,6.90
2022-11-25T22:55:30.301Z,6.93
2022-11-25T22:58:00.141Z,6.90
2022-11-25T23:00:30.880Z,7.50
2022-11-25T23:03:00.798Z,7.00
2022-11-25T23:05:33.369Z,7.63
2022-11-25T23:08:02.304Z,7.63
2022-11-25T23:10:33.481Z,6.87
2022-11-25T23:13:03.654Z,6.87
2022-11-25T23:15:31.796Z,6.50
2022-11-25T23:18:02.037Z,7.33
2022-11-25T23:20:32.360Z,6.80
2022-11-25T23:23:03.915Z,7.57
2022-11-25T23:25:33.471Z,7.90
2022-11-25T23:28:01.461Z,6.63
2022-11-25T23:30:29.295Z,7.70
2022-11-25T23:32:57.915Z,8.63
2022-11-25T23:35:29.013Z,7.40
2022-11-25T23:37:58.254Z,7.87
2022-11-25T23:40:27.710Z,8.03
2022-11-25T23:42:57.409Z,8.20
2022-11-25T23:45:27.731Z,8.53
2022-11-25T23:47:58.144Z,8.40
2022-11-25T23:50:29.502Z,8.40
2022-11-25T23:53:01.176Z,8.53
2022-11-25T23:55:32.798Z,9.40
2022-11-25T23:58:04.148Z,8.60
